createdAt,value
2022-12-26T00:01:10.883Z,97381.34
2022-12-26T00:03:39.280Z,97387.59
2022-12-26T00:06:14.504Z,97383.19
2022-12-26T00:08:42.639Z,97378.66
2022-12-26T00:11:10.767Z,97372.53
2022-12-26T00:13:41.567Z,97364.47
2022-12-26T00:16:11.102Z,97359.97
2022-12-26T00:18:39.350Z,97358.22
2022-12-26T00:21:07.663Z,97361.88
2022-12-26T00:23:37.412Z,97362.00
2022-12-26T00:26:05.680Z,97365.63
2022-12-26T00:28:33.817Z,97371.13
2022-12-26T00:31:05.071Z,97362.06
2022-12-26T00:33:33.226Z,97360.25
2022-12-26T00:36:02.756Z,97371.88
2022-12-26T00:38:31.099Z,97367.47
2022-12-26T00:41:00.572Z,97380.91
2022-12-26T00:43:28.731Z,97389.06
2022-12-26T00:45:56.831Z,97390.06
2022-12-26T00:48:25.412Z,97402.53
2022-12-26T00:50:53.561Z,97397.25
2022-12-26T00:53:21.852Z,97398.13
2022-12-26T00:55:49.923Z,97397.38
2022-12-26T00:58:19.530Z,97390.16
2022-12-26T01:00:47.661Z,97395.53
2022-12-26T01:03:16.047Z,97387.56
2022-12-26T01:05:44.252Z,97380.47
2022-12-26T01:08:19.501Z,97384.03
2022-12-26T01:10:50.385Z,97385.84
2022-12-26T01:13:19.892Z,97387.78
2022-12-26T01:15:51.712Z,97376.16
2022-12-26T01:18:20.032Z,97379.81
2022-12-26T01:20:48.166Z,97393.25
2022-12-26T01:23:16.236Z,97390.56
2022-12-26T01:26:16.909Z,97395.97
2022-12-26T01:28:33.846Z,97388.84
2022-12-26T01:31:04.828Z,97382.59
2022-12-26T01:33:33.051Z,97387.97
2022-12-26T01:36:01.222Z,97383.56
2022-12-26T01:38:29.451Z,97392.50
2022-12-26T01:41:11.398Z,97390.75
2022-12-26T01:43:57.611Z,97385.50
2022-12-26T01:46:28.635Z,97386.44
2022-12-26T01:48:57.447Z,97382.81
2022-12-26T01:51:25.677Z,97389.13
2022-12-26T01:53:54.997Z,97385.59
2022-12-26T01:56:43.601Z,97391.81
2022-12-26T01:59:14.660Z,97390.13
2022-12-26T02:01:43.005Z,97398.28
2022-12-26T02:04:30.852Z,97408.06
2022-12-26T02:06:59.067Z,97404.50
2022-12-26T02:09:27.176Z,97401.81
2022-12-26T02:12:36.626Z,97398.28
2022-12-26T02:14:47.009Z,97401.94
2022-12-26T02:17:15.152Z,97385.81
2022-12-26T02:19:47.106Z,97394.84
2022-12-26T02:22:31.809Z,97384.09
2022-12-26T02:25:10.803Z,97401.06
2022-12-26T02:28:03.289Z,97392.22
2022-12-26T02:30:38.091Z,97399.47
2022-12-26T02:33:18.598Z,97399.53
2022-12-26T02:36:01.052Z,97395.03
2022-12-26T02:38:35.000Z,97404.91
2022-12-26T02:41:08.752Z,97386.97
2022-12-26T02:43:39.748Z,97387.94
2022-12-26T02:46:30.825Z,97379.97
2022-12-26T02:48:59.961Z,97394.28
2022-12-26T02:51:56.861Z,97406.84
2022-12-26T02:54:48.751Z,97412.22
2022-12-26T02:57:37.081Z,97414.91
2022-12-26T03:00:24.675Z,97415.88
2022-12-26T03:03:12.248Z,97417.69
2022-12-26T03:05:59.568Z,97417.69
2022-12-26T03:08:47.921Z,97420.50
2022-12-26T03:11:33.426Z,97414.25
2022-12-26T03:14:06.694Z,97404.47
2022-12-26T03:16:52.045Z,97406.28
2022-12-26T03:19:21.599Z,97410.78
2022-12-26T03:21:49.662Z,97402.75
2022-12-26T03:24:17.784Z,97400.91
2022-12-26T03:26:48.471Z,97401.88
2022-12-26T03:29:34.731Z,97403.72
2022-12-26T03:32:04.204Z,97403.72
2022-12-26T03:34:33.817Z,97411.00
2022-12-26T03:37:47.154Z,97409.16
2022-12-26T03:40:40.262Z,97412.84
2022-12-26T03:43:29.576Z,97417.34
2022-12-26T03:46:19.528Z,97415.53
2022-12-26T03:49:08.420Z,97413.78
2022-12-26T03:51:58.203Z,97408.50
2022-12-26T03:54:51.295Z,97409.38
2022-12-26T03:57:37.466Z,97408.41
2022-12-26T04:00:24.348Z,97399.50
2022-12-26T04:03:10.249Z,97401.31
2022-12-26T04:05:56.998Z,97404.88
2022-12-26T04:08:46.292Z,97399.59
2022-12-26T04:11:33.036Z,97395.06
2022-12-26T04:14:20.331Z,97395.19
2022-12-26T04:17:08.018Z,97396.13
2022-12-26T04:19:48.546Z,97398.81
2022-12-26T04:22:36.798Z,97404.19
2022-12-26T04:25:50.275Z,97398.81
2022-12-26T04:28:31.572Z,97401.63
2022-12-26T04:31:19.456Z,97409.69
2022-12-26T04:34:07.840Z,97409.69
2022-12-26T04:36:56.078Z,97407.00
2022-12-26T04:39:42.584Z,97398.06
2022-12-26T04:42:29.242Z,97398.16
2022-12-26T04:44:57.470Z,97394.53
2022-12-26T04:47:25.517Z,97388.28
2022-12-26T04:50:11.261Z,97390.97
2022-12-26T04:52:59.784Z,97395.47
2022-12-26T04:55:29.615Z,97402.66
2022-12-26T04:57:59.154Z,97399.16
2022-12-26T05:00:29.282Z,97401.84
2022-12-26T05:03:29.234Z,97404.53
2022-12-26T05:06:14.900Z,97405.47
2022-12-26T05:09:00.986Z,97396.53
2022-12-26T05:11:29.230Z,97404.59
2022-12-26T05:13:58.972Z,97400.19
2022-12-26T05:16:44.690Z,97410.84
2022-12-26T05:19:30.209Z,97431.47
2022-12-26T05:22:16.232Z,97436.06
2022-12-26T05:25:02.046Z,97434.38
2022-12-26T05:27:49.277Z,97430.69
2022-12-26T05:30:18.938Z,97440.50
2022-12-26T05:33:04.398Z,97429.75
2022-12-26T05:35:32.557Z,97434.16
2022-12-26T05:38:00.599Z,97445.75
2022-12-26T05:40:28.770Z,97445.75
2022-12-26T05:42:56.900Z,97447.59
2022-12-26T05:45:26.397Z,97449.31
2022-12-26T05:47:59.335Z,97443.06
2022-12-26T05:50:27.548Z,97460.06
2022-12-26T05:52:57.344Z,97456.41
2022-12-26T05:55:25.530Z,97466.22
2022-12-26T05:57:53.556Z,97445.66
2022-12-26T06:00:21.757Z,97451.91
2022-12-26T06:02:51.424Z,97444.72
2022-12-26T06:05:19.771Z,97440.22
2022-12-26T06:07:47.806Z,97436.53
2022-12-26T06:10:16.069Z,97435.66
2022-12-26T06:12:44.159Z,97434.72
2022-12-26T06:15:12.908Z,97432.03
2022-12-26T06:17:40.999Z,97433.75
2022-12-26T06:20:11.361Z,97426.66
2022-12-26T06:22:39.580Z,97432.03
2022-12-26T06:25:08.700Z,97436.44
2022-12-26T06:27:36.764Z,97433.84
2022-12-26T06:30:05.551Z,97439.34
2022-12-26T06:32:33.591Z,97434.91
2022-12-26T06:35:01.690Z,97425.78
2022-12-26T06:37:31.524Z,97433.75
2022-12-26T06:39:59.621Z,97438.28
2022-12-26T06:42:28.574Z,97440.09
2022-12-26T06:44:56.696Z,97433.84
2022-12-26T06:47:24.734Z,97442.78
2022-12-26T06:49:52.869Z,97440.00
2022-12-26T06:52:21.064Z,97446.13
2022-12-26T06:54:50.542Z,97452.28
2022-12-26T06:57:18.683Z,97442.50
2022-12-26T06:59:46.744Z,97437.97
2022-12-26T07:02:14.979Z,97438.72
2022-12-26T07:04:43.259Z,97448.53
2022-12-26T07:07:11.423Z,97439.59
2022-12-26T07:09:39.522Z,97449.41
2022-12-26T07:12:09.104Z,97443.25
2022-12-26T07:14:37.886Z,97445.94
2022-12-26T07:17:06.008Z,97445.94
2022-12-26T07:19:34.127Z,97445.84
2022-12-26T07:22:02.231Z,97448.53
2022-12-26T07:24:31.039Z,97445.84
2022-12-26T07:26:59.127Z,97446.59
2022-12-26T07:29:28.642Z,97450.94
2022-12-26T07:31:58.206Z,97455.22
2022-12-26T07:34:31.337Z,97464.25
2022-12-26T07:37:01.286Z,97469.63
2022-12-26T07:39:29.400Z,97460.59
2022-12-26T07:42:00.406Z,97471.25
2022-12-26T07:44:30.746Z,97467.72
2022-12-26T07:46:58.896Z,97464.16
2022-12-26T07:49:27.166Z,97465.97
2022-12-26T07:51:55.336Z,97464.16
2022-12-26T07:54:23.661Z,97460.50
2022-12-26T07:56:51.815Z,97456.09
2022-12-26T07:59:19.872Z,97461.47
2022-12-26T08:01:49.476Z,97455.97
2022-12-26T08:04:17.761Z,97453.28
2022-12-26T08:06:47.225Z,97451.69
2022-12-26T08:09:17.077Z,97447.38
2022-12-26T08:11:45.546Z,97438.66
2022-12-26T08:14:13.857Z,97450.56
2022-12-26T08:16:42.059Z,97433.75
2022-12-26T08:19:11.600Z,97442.78
2022-12-26T08:21:39.788Z,97456.22
2022-12-26T08:24:08.028Z,97459.56
2022-12-26T08:26:36.122Z,97463.22
2022-12-26T08:29:04.197Z,97461.50
2022-12-26T08:31:32.341Z,97457.00
2022-12-26T08:34:00.458Z,97462.91
2022-12-26T08:36:31.981Z,97465.41
2022-12-26T08:39:00.074Z,97459.16
2022-12-26T08:41:28.193Z,97464.53
2022-12-26T08:46:44.487Z,97475.94
2022-12-26T08:49:12.597Z,97471.34
2022-12-26T08:51:42.089Z,97477.47
2022-12-26T08:54:10.174Z,97472.31
2022-12-26T08:56:38.332Z,97477.81
2022-12-26T08:59:07.987Z,97482.09
2022-12-26T09:01:36.275Z,97473.19
2022-12-26T09:04:06.719Z,97477.69
2022-12-26T09:06:35.273Z,97475.00
2022-12-26T09:09:04.801Z,97471.56
2022-12-26T09:11:32.919Z,97478.63
2022-12-26T09:14:02.188Z,97482.19
2022-12-26T09:16:37.485Z,97482.09
2022-12-26T09:19:06.808Z,97478.56
2022-12-26T09:21:35.174Z,97463.28
2022-12-26T09:24:07.013Z,97461.47
2022-12-26T09:26:35.214Z,97461.47
2022-12-26T09:29:03.362Z,97469.41
2022-12-26T09:31:32.344Z,97461.34
2022-12-26T09:34:00.613Z,97465.78
2022-12-26T09:36:30.561Z,97458.66
2022-12-26T09:38:59.025Z,97465.88
2022-12-26T09:41:37.975Z,97466.66
2022-12-26T09:44:08.022Z,97459.34
2022-12-26T09:46:37.508Z,97469.00
2022-12-26T09:49:09.818Z,97471.63
2022-12-26T09:51:38.873Z,97473.34
2022-12-26T09:54:07.464Z,97469.59
2022-12-26T09:57:02.189Z,97465.09
2022-12-26T09:59:26.586Z,97458.72
2022-12-26T10:01:55.499Z,97452.31
2022-12-26T10:04:29.641Z,97447.69
2022-12-26T10:07:04.914Z,97434.03
2022-12-26T10:09:56.419Z,97429.41
2022-12-26T10:12:34.478Z,97424.91
2022-12-26T10:15:07.815Z,97418.63
2022-12-26T10:17:38.143Z,97415.59
2022-12-26T10:20:19.111Z,97403.63
2022-12-26T10:23:06.084Z,97414.03
2022-12-26T10:25:42.268Z,97413.91
2022-12-26T10:28:17.130Z,97414.59
2022-12-26T10:30:45.287Z,97408.13
2022-12-26T10:33:15.274Z,97412.44
2022-12-26T10:35:44.229Z,97404.28
2022-12-26T10:38:14.277Z,97399.78
2022-12-26T10:40:43.899Z,97403.34
2022-12-26T10:43:22.725Z,97407.88
2022-12-26T10:45:53.339Z,97409.75
2022-12-26T10:48:21.495Z,97415.31
2022-12-26T10:50:50.084Z,97416.38
2022-12-26T10:53:18.172Z,97410.03
2022-12-26T10:55:46.231Z,97404.66
2022-12-26T10:58:19.063Z,97392.09
2022-12-26T11:00:47.207Z,97386.59
2022-12-26T11:03:16.158Z,97374.03
2022-12-26T11:08:40.849Z,97363.06
2022-12-26T11:11:13.948Z,97357.69
2022-12-26T11:13:47.519Z,97356.69
2022-12-26T11:16:15.821Z,97352.19
2022-12-26T11:18:48.556Z,97354.88
2022-12-26T11:21:23.242Z,97353.94
2022-12-26T11:23:52.486Z,97351.25
2022-12-26T11:26:23.441Z,97348.56
2022-12-26T11:29:06.884Z,97346.81
2022-12-26T11:31:35.104Z,97346.69
2022-12-26T11:34:03.403Z,97338.63
2022-12-26T11:36:32.776Z,97339.50
2022-12-26T11:39:02.026Z,97341.44
2022-12-26T11:41:39.759Z,97336.94
2022-12-26T11:44:20.237Z,97336.94
2022-12-26T11:46:51.134Z,97345.75
2022-12-26T11:49:21.984Z,97350.25
2022-12-26T11:51:55.650Z,97345.75
2022-12-26T11:54:32.619Z,97337.69
2022-12-26T11:57:20.784Z,97335.00
2022-12-26T11:59:50.864Z,97339.41
2022-12-26T12:02:29.946Z,97326.81
2022-12-26T12:05:00.958Z,97322.19
2022-12-26T12:08:07.286Z,97326.72
2022-12-26T12:10:47.892Z,97329.41
2022-12-26T12:13:25.017Z,97328.56
2022-12-26T12:15:57.862Z,97330.25
2022-12-26T12:18:33.261Z,97334.69
2022-12-26T12:21:06.145Z,97345.94
2022-12-26T12:23:44.571Z,97346.06
2022-12-26T12:26:15.686Z,97353.19
2022-12-26T12:29:11.679Z,97346.94
2022-12-26T12:31:48.191Z,97350.59
2022-12-26T12:34:22.194Z,97357.56
2022-12-26T12:36:55.863Z,97353.06
2022-12-26T12:39:30.964Z,97343.19
2022-12-26T12:42:15.347Z,97352.06
2022-12-26T12:44:59.909Z,97353.94
2022-12-26T12:47:35.598Z,97353.94
2022-12-26T12:50:07.423Z,97350.25
2022-12-26T12:52:42.596Z,97341.25
2022-12-26T12:55:50.290Z,97341.25
2022-12-26T12:58:23.332Z,97340.38
2022-12-26T13:00:53.483Z,97340.38
2022-12-26T13:03:27.418Z,97338.56
2022-12-26T13:05:58.396Z,97337.69
2022-12-26T13:08:28.318Z,97341.25
2022-12-26T13:10:59.166Z,97334.88
2022-12-26T13:13:28.874Z,97333.94
2022-12-26T13:15:58.829Z,97339.41
2022-12-26T13:18:29.622Z,97330.56
2022-12-26T13:21:00.326Z,97329.75
2022-12-26T13:23:48.536Z,97327.88
2022-12-26T13:26:19.089Z,97333.25
2022-12-26T13:28:53.077Z,97340.38
2022-12-26T13:31:22.154Z,97350.25
2022-12-26T13:33:51.747Z,97348.44
2022-12-26T13:36:37.422Z,97346.69
2022-12-26T13:39:26.736Z,97342.31
2022-12-26T13:42:13.531Z,97336.06
2022-12-26T13:44:41.720Z,97342.31
2022-12-26T13:47:34.539Z,97343.19
2022-12-26T13:50:35.668Z,97338.75
2022-12-26T13:53:05.330Z,97345.94
2022-12-26T13:55:44.126Z,97355.88
2022-12-26T13:58:24.792Z,97351.44
2022-12-26T14:00:52.963Z,97350.50
2022-12-26T14:03:55.104Z,97348.63
2022-12-26T14:06:50.939Z,97345.94
2022-12-26T14:09:43.035Z,97349.50
2022-12-26T14:12:46.341Z,97346.69
2022-12-26T14:15:23.605Z,97349.31
2022-12-26T14:17:58.876Z,97343.19
2022-12-26T14:20:39.432Z,97342.41
2022-12-26T14:23:25.485Z,97337.88
2022-12-26T14:25:59.465Z,97337.16
2022-12-26T14:28:29.358Z,97338.09
2022-12-26T14:31:06.206Z,97343.47
2022-12-26T14:33:36.794Z,97343.47
2022-12-26T14:36:18.341Z,97341.66
2022-12-26T14:38:48.983Z,97355.09
2022-12-26T14:41:33.005Z,97355.22
2022-12-26T14:44:11.371Z,97356.06
2022-12-26T14:47:02.992Z,97352.59
2022-12-26T14:49:39.505Z,97344.47
2022-12-26T14:52:40.878Z,97337.34
2022-12-26T14:55:40.251Z,97345.41
2022-12-26T14:58:29.338Z,97341.03
2022-12-26T15:00:58.223Z,97344.53
2022-12-26T15:03:47.811Z,97341.84
2022-12-26T15:06:43.828Z,97338.22
2022-12-26T15:09:50.758Z,97338.00
2022-12-26T15:12:58.365Z,97347.69
2022-12-26T15:15:32.768Z,97339.50
2022-12-26T15:18:23.841Z,97341.25
2022-12-26T15:21:09.136Z,97341.13
2022-12-26T15:24:11.684Z,97342.00
2022-12-26T15:27:07.758Z,97349.19
2022-12-26T15:30:00.872Z,97353.72
2022-12-26T15:32:33.329Z,97353.72
2022-12-26T15:35:07.446Z,97352.75
2022-12-26T15:37:56.454Z,97367.91
2022-12-26T15:40:25.429Z,97365.22
2022-12-26T15:43:00.951Z,97368.66
2022-12-26T15:45:41.166Z,97365.03
2022-12-26T15:48:18.645Z,97366.84
2022-12-26T15:50:53.217Z,97363.19
2022-12-26T15:53:26.721Z,97359.66
2022-12-26T15:56:08.872Z,97354.16
2022-12-26T15:58:50.356Z,97355.03
2022-12-26T16:01:39.716Z,97351.41
2022-12-26T16:04:14.316Z,97364.84
2022-12-26T16:07:00.221Z,97364.84
2022-12-26T16:09:38.701Z,97365.72
2022-12-26T16:12:21.408Z,97354.09
2022-12-26T16:14:50.002Z,97358.50
2022-12-26T16:17:22.918Z,97360.22
2022-12-26T16:19:53.308Z,97350.34
2022-12-26T16:22:44.149Z,97351.19
2022-12-26T16:25:12.889Z,97350.34
2022-12-26T16:27:40.960Z,97352.25
2022-12-26T16:30:14.202Z,97354.94
2022-12-26T16:32:43.017Z,97361.25
2022-12-26T16:35:19.569Z,97361.25
2022-12-26T16:37:47.730Z,97355.03
2022-12-26T16:40:19.438Z,97361.25
2022-12-26T16:43:00.340Z,97371.16
2022-12-26T16:45:29.075Z,97368.47
2022-12-26T16:47:57.315Z,97365.78
2022-12-26T16:50:28.595Z,97367.59
2022-12-26T16:53:15.080Z,97385.44
2022-12-26T16:55:46.678Z,97382.75
2022-12-26T16:58:17.322Z,97382.75
2022-12-26T17:00:50.338Z,97374.69
2022-12-26T17:03:27.646Z,97373.78
2022-12-26T17:05:57.345Z,97378.28
2022-12-26T17:08:26.137Z,97357.72
2022-12-26T17:10:54.208Z,97367.53
2022-12-26T17:13:23.540Z,97357.63
2022-12-26T17:15:53.314Z,97355.03
2022-12-26T17:18:32.386Z,97358.66
2022-12-26T17:21:31.386Z,97347.91
2022-12-26T17:24:13.207Z,97347.03
2022-12-26T17:26:42.051Z,97346.09
2022-12-26T17:29:38.442Z,97344.47
2022-12-26T17:32:09.800Z,97352.53
2022-12-26T17:34:38.868Z,97348.97
2022-12-26T17:37:18.992Z,97341.88
2022-12-26T17:39:52.695Z,97336.63
2022-12-26T17:42:20.831Z,97329.41
2022-12-26T17:44:48.903Z,97337.47
2022-12-26T17:47:22.621Z,97345.44
2022-12-26T17:49:51.393Z,97353.41
2022-12-26T17:52:21.665Z,97357.81
2022-12-26T17:54:50.306Z,97362.34
2022-12-26T17:57:20.361Z,97358.66
2022-12-26T17:59:48.631Z,97362.22
2022-12-26T18:02:16.835Z,97360.41
2022-12-26T18:04:45.078Z,97348.69
2022-12-26T18:07:14.383Z,97354.94
2022-12-26T18:09:43.842Z,97352.16
2022-12-26T18:12:12.820Z,97352.91
2022-12-26T18:14:40.937Z,97354.53
2022-12-26T18:17:09.127Z,97346.34
2022-12-26T18:19:37.269Z,97350.78
2022-12-26T18:22:06.194Z,97350.56
2022-12-26T18:24:34.429Z,97344.22
2022-12-26T18:27:04.276Z,97344.22
2022-12-26T18:29:32.438Z,97342.38
2022-12-26T18:32:00.614Z,97345.94
2022-12-26T18:34:28.830Z,97349.50
2022-12-26T18:36:57.016Z,97349.50
2022-12-26T18:39:25.451Z,97355.75
2022-12-26T18:41:53.535Z,97344.09
2022-12-26T18:44:23.065Z,97352.19
2022-12-26T18:46:51.891Z,97352.94
2022-12-26T18:49:20.083Z,97344.00
2022-12-26T18:51:48.266Z,97343.03
2022-12-26T18:54:16.497Z,97343.88
2022-12-26T18:56:44.626Z,97340.34
2022-12-26T18:59:13.267Z,97329.69
2022-12-26T19:01:42.825Z,97334.22
2022-12-26T19:04:11.178Z,97329.69
2022-12-26T19:06:39.391Z,97319.91
2022-12-26T19:09:07.481Z,97322.59
2022-12-26T19:11:35.763Z,97329.78
2022-12-26T19:14:07.803Z,97333.34
2022-12-26T19:16:36.044Z,97337.84
2022-12-26T19:19:05.699Z,97334.22
2022-12-26T19:21:33.796Z,97333.34
2022-12-26T19:24:02.003Z,97332.47
2022-12-26T19:26:30.106Z,97329.91
2022-12-26T19:28:58.234Z,97345.16
2022-12-26T19:31:26.439Z,97339.78
2022-12-26T19:33:54.639Z,97349.59
2022-12-26T19:36:24.137Z,97359.38
2022-12-26T19:38:53.823Z,97364.00
2022-12-26T19:41:22.091Z,97375.63
2022-12-26T19:43:55.460Z,97375.75
2022-12-26T19:46:23.628Z,97389.19
2022-12-26T19:48:51.793Z,97379.38
2022-12-26T19:51:20.185Z,97376.81
2022-12-26T19:53:49.691Z,97384.97
2022-12-26T19:56:18.858Z,97396.59
2022-12-26T19:58:50.459Z,97409.28
2022-12-26T20:01:22.711Z,97421.78
2022-12-26T20:03:50.856Z,97432.53
2022-12-26T20:06:20.391Z,97430.78
2022-12-26T20:08:50.505Z,97431.66
2022-12-26T20:11:21.557Z,97431.66
2022-12-26T20:13:49.805Z,97429.09
2022-12-26T20:17:03.162Z,97424.56
2022-12-26T20:19:11.287Z,97435.31
2022-12-26T20:21:39.388Z,97434.47
2022-12-26T20:24:10.638Z,97430.91
2022-12-26T20:26:38.733Z,97440.78
2022-12-26T20:29:08.421Z,97453.41
2022-12-26T20:31:36.612Z,97450.72
2022-12-26T20:34:04.853Z,97443.59
2022-12-26T20:36:33.958Z,97456.09
2022-12-26T20:39:03.069Z,97458.78
2022-12-26T20:41:32.591Z,97463.28
2022-12-26T20:44:00.716Z,97476.72
2022-12-26T20:46:31.930Z,97485.75
2022-12-26T20:49:01.337Z,97492.97
2022-12-26T20:51:36.860Z,97497.38
2022-12-26T20:54:06.538Z,97509.13
2022-12-26T20:56:36.344Z,97505.56
2022-12-26T20:59:04.561Z,97517.22
2022-12-26T21:01:32.772Z,97524.53
2022-12-26T21:04:01.129Z,97533.75
2022-12-26T21:06:31.203Z,97526.97
2022-12-26T21:08:59.432Z,97525.44
2022-12-26T21:11:28.401Z,97531.97
2022-12-26T21:13:59.529Z,97528.63
2022-12-26T21:16:28.645Z,97527.88
2022-12-26T21:18:57.373Z,97529.78
2022-12-26T21:21:26.410Z,97529.03
2022-12-26T21:23:56.596Z,97545.25
2022-12-26T21:26:24.938Z,97541.81
2022-12-26T21:28:57.822Z,97541.03
2022-12-26T21:31:25.976Z,97554.59
2022-12-26T21:33:56.027Z,97547.56
2022-12-26T21:36:24.443Z,97551.19
2022-12-26T21:38:52.898Z,97551.31
2022-12-26T21:41:21.337Z,97549.66
2022-12-26T21:43:49.744Z,97551.59
2022-12-26T21:46:20.113Z,97554.38
2022-12-26T21:48:49.884Z,97565.34
2022-12-26T21:51:18.921Z,97567.16
2022-12-26T21:53:47.114Z,97565.53
2022-12-26T21:56:15.088Z,97556.69
2022-12-26T21:59:00.531Z,97564.84
2022-12-26T22:01:30.318Z,97573.84
2022-12-26T22:04:15.659Z,97570.34
2022-12-26T22:06:43.951Z,97581.25
2022-12-26T22:09:12.488Z,97570.59
2022-12-26T22:11:58.152Z,97577.81
2022-12-26T22:14:26.234Z,97581.47
2022-12-26T22:16:56.169Z,97580.69
2022-12-26T22:19:25.278Z,97592.28
2022-12-26T22:21:53.369Z,97596.88
2022-12-26T22:24:21.845Z,97599.66
2022-12-26T22:26:49.969Z,97594.41
2022-12-26T22:29:18.258Z,97585.56
2022-12-26T22:31:46.361Z,97592.75
2022-12-26T22:34:16.930Z,97588.31
2022-12-26T22:36:45.012Z,97585.72
2022-12-26T22:39:13.797Z,97576.88
2022-12-26T22:41:41.950Z,97575.16
2022-12-26T22:44:12.827Z,97568.06
2022-12-26T22:46:41.068Z,97565.56
2022-12-26T22:49:09.177Z,97565.56
2022-12-26T22:51:39.414Z,97556.66
2022-12-26T22:54:07.607Z,97551.38
2022-12-26T22:56:35.724Z,97556.84
2022-12-26T22:59:04.017Z,97560.47
2022-12-26T23:01:32.162Z,97562.28
2022-12-26T23:04:01.474Z,97556.16
2022-12-26T23:06:30.424Z,97559.81
2022-12-26T23:09:02.077Z,97555.38
2022-12-26T23:11:34.747Z,97563.44
2022-12-26T23:14:04.902Z,97559.97
2022-12-26T23:16:34.698Z,97555.59
2022-12-26T23:19:21.291Z,97554.72
2022-12-26T23:21:50.542Z,97570.94
2022-12-26T23:24:20.989Z,97571.97
2022-12-26T23:26:49.997Z,97571.97
2022-12-26T23:29:37.247Z,97571.09
2022-12-26T23:32:05.825Z,97581.06
2022-12-26T23:34:33.954Z,97556.06
2022-12-26T23:37:02.111Z,97559.69
2022-12-26T23:39:31.563Z,97552.59
2022-12-26T23:41:59.701Z,97551.84
2022-12-26T23:44:27.825Z,97537.53
2022-12-26T23:46:55.957Z,97529.50
2022-12-26T23:49:24.080Z,97521.44
2022-12-26T23:51:52.178Z,97504.56
2022-12-26T23:54:20.271Z,97486.69
2022-12-26T23:56:49.809Z,97467.91
2022-12-26T23:59:19.061Z,97476.06
